This is the latest recevied weather packets stored in our database for station/object WW3TRG. If no packets are shown the sender has not sent any weather packets the latest 1 day(s).
| Time | Temp. | Humidity | Pressure | Rain* | Wind** | Luminosity | Snow |
|---|---|---|---|---|---|---|---|
| 1778076906 | 17.22° C | 96% | 1008 hPa | 1.27 mm | - | 35 W/m² | - |
| 1778076301 | 16.67° C | 95% | 1007.8 hPa | 0 mm | - | 61 W/m² | - |
| 1778075695 | 17.22° C | 95% | 1007.9 hPa | 0.51 mm | - | 35 W/m² | - |
| 1778075391 | 17.22° C | 94% | 1007.7 hPa | 0 mm | - | 45 W/m² | - |
| 1778075087 | 17.22° C | 93% | 1007.9 hPa | 0.51 mm | - | 62 W/m² | - |
| 1778074784 | 17.22° C | 93% | 1007.8 hPa | 0.51 mm | - | 92 W/m² | - |
| 1778074481 | 16.67° C | 93% | 1007.9 hPa | 0 mm | - | 83 W/m² | - |
| 1778073875 | 17.22° C | 93% | 1007.9 hPa | 0 mm | - | 40 W/m² | - |
| 1778072966 | 17.22° C | 92% | 1008 hPa | 0 mm | - | 40 W/m² | - |
| 1778072662 | 17.22° C | 91% | 1008.4 hPa | 0.51 mm | - | 31 W/m² | - |
| 1778071151 | 17.78° C | 86% | 1007.9 hPa | 0 mm | - | 33 W/m² | - |
| 1778070546 | 18.33° C | 84% | 1008 hPa | 0 mm | - | 37 W/m² | - |
| 1778070243 | 18.33° C | 82% | 1007.9 hPa | 0 mm | - | 35 W/m² | - |
| 1778066915 | 17.78° C | 84% | 1007.5 hPa | 0 mm | - | 38 W/m² | - |
| 1778065705 | 16.67° C | 88% | 1007.7 hPa | 0 mm | - | 17 W/m² | - |
| 1778065402 | 17.22° C | 87% | 1007.3 hPa | 0 mm | - | 18 W/m² | - |
| 1778065099 | 16.67° C | 87% | 1007.7 hPa | 0 mm | - | 18 W/m² | - |
| 1778064795 | 16.67° C | 89% | 1007.3 hPa | 0 mm | - | 22 W/m² | - |
| 1778064493 | 15.56° C | 92% | 1007.3 hPa | 0 mm | - | 26 W/m² | - |
| 1778063888 | 15° C | 94% | 1007.2 hPa | 0 mm | - | 31 W/m² | - |
| 1778061468 | 13.89° C | 94% | 1007.2 hPa | 0 mm | - | 0 W/m² | - |
| 1778061164 | 13.89° C | 94% | 1007.3 hPa | 0 mm | - | 0 W/m² | - |
| 1778059954 | 13.89° C | 93% | 1007.1 hPa | 0 mm | - | 0 W/m² | - |
| 1778059652 | 13.89° C | 93% | 1007.2 hPa | 0 mm | - | 0 W/m² | - |
| 1778059350 | 13.89° C | 94% | 1007 hPa | 0 mm | - | 0 W/m² | - |
* Rain latest hour (hover to see other rain measurements)
** Current wind speed in m/s (hover to see current wind gust speed)